createdAt,value
2019-05-07T00:00:38.802Z,8.62
2019-05-07T00:01:38.774Z,8.62
2019-05-07T00:02:38.764Z,8.63
2019-05-07T00:03:38.758Z,8.58
2019-05-07T00:04:38.752Z,8.53
2019-05-07T00:05:38.739Z,8.58
2019-05-07T00:06:38.716Z,8.47
2019-05-07T00:07:38.714Z,8.53
2019-05-07T00:08:38.698Z,8.47
2019-05-07T00:09:38.712Z,8.52
2019-05-07T00:10:38.675Z,8.50
2019-05-07T00:11:38.670Z,8.43
2019-05-07T00:12:38.644Z,8.47
2019-05-07T00:13:38.646Z,8.45
2019-05-07T00:14:38.673Z,8.43
2019-05-07T00:15:38.622Z,8.52
2019-05-07T00:16:38.614Z,8.52
2019-05-07T00:17:38.615Z,8.48
2019-05-07T00:18:38.591Z,8.58
2019-05-07T00:19:38.587Z,8.58
2019-05-07T00:20:38.566Z,8.53
2019-05-07T00:21:38.552Z,8.50
2019-05-07T00:22:38.539Z,8.55
2019-05-07T00:23:38.531Z,8.56
2019-05-07T00:24:38.553Z,8.56
2019-05-07T00:25:38.525Z,8.61
2019-05-07T00:26:38.495Z,8.48
2019-05-07T00:27:38.490Z,8.62
2019-05-07T00:28:38.483Z,8.59
2019-05-07T00:29:38.482Z,8.58
2019-05-07T00:30:38.453Z,8.65
2019-05-07T00:31:38.467Z,8.47
2019-05-07T00:32:38.443Z,8.56
2019-05-07T00:33:38.427Z,8.52
2019-05-07T00:34:38.438Z,8.40
2019-05-07T00:35:38.401Z,8.36
2019-05-07T00:36:38.380Z,8.33
2019-05-07T00:37:38.416Z,8.20
2019-05-07T00:38:38.367Z,8.20
2019-05-07T00:39:38.375Z,8.19
2019-05-07T00:40:38.345Z,8.22
2019-05-07T00:41:38.332Z,8.34
2019-05-07T00:42:38.327Z,8.20
2019-05-07T00:43:38.390Z,8.20
2019-05-07T00:44:38.309Z,8.15
2019-05-07T00:45:38.313Z,8.18
2019-05-07T00:46:38.274Z,8.15
2019-05-07T00:47:38.268Z,8.11
2019-05-07T00:48:38.259Z,8.19
2019-05-07T00:49:38.237Z,8.25
2019-05-07T00:50:38.248Z,8.29
2019-05-07T00:51:38.219Z,8.22
2019-05-07T00:52:38.231Z,8.37
2019-05-07T00:53:38.203Z,8.36
2019-05-07T00:54:38.177Z,8.34
2019-05-07T00:55:38.201Z,8.29
2019-05-07T00:56:38.166Z,8.25
2019-05-07T00:57:38.154Z,8.25
2019-05-07T00:58:38.133Z,8.26
2019-05-07T00:59:38.140Z,8.25
2019-05-07T01:00:38.146Z,8.29
2019-05-07T01:01:38.111Z,8.22
2019-05-07T01:02:38.142Z,8.36
2019-05-07T01:03:38.084Z,8.40
2019-05-07T01:04:38.080Z,8.30
2019-05-07T01:05:38.084Z,8.36
2019-05-07T01:06:38.056Z,8.38
2019-05-07T01:07:38.032Z,8.36
2019-05-07T01:08:38.032Z,8.40
2019-05-07T01:09:38.020Z,8.37
2019-05-07T01:10:38.020Z,8.44
2019-05-07T01:11:37.991Z,8.40
2019-05-07T01:12:37.990Z,8.28
2019-05-07T01:13:37.976Z,8.10
2019-05-07T01:14:37.968Z,8.11
2019-05-07T01:15:37.988Z,8.04
2019-05-07T01:16:37.943Z,8.04
2019-05-07T01:17:37.986Z,8.07
2019-05-07T01:18:37.922Z,8.07
2019-05-07T01:19:37.898Z,8.10
2019-05-07T01:20:37.916Z,8.01
2019-05-07T01:21:37.890Z,7.87
2019-05-07T01:22:37.884Z,7.85
2019-05-07T01:23:37.870Z,7.82
2019-05-07T01:24:37.866Z,7.85
2019-05-07T01:25:37.862Z,7.86
2019-05-07T01:26:37.843Z,7.86
2019-05-07T01:27:37.823Z,7.89
2019-05-07T01:28:37.808Z,7.83
2019-05-07T01:29:37.800Z,7.75
2019-05-07T01:30:37.802Z,7.69
2019-05-07T01:31:37.781Z,7.63
2019-05-07T01:32:37.762Z,7.55
2019-05-07T01:33:37.751Z,7.57
2019-05-07T01:34:37.749Z,7.52
2019-05-07T01:35:37.746Z,7.50
2019-05-07T01:36:37.712Z,7.64
2019-05-07T01:37:37.707Z,7.67
2019-05-07T01:38:37.699Z,7.61
2019-05-07T01:39:37.682Z,7.58
2019-05-07T01:40:37.689Z,7.53
2019-05-07T01:41:37.688Z,7.48
2019-05-07T01:42:37.647Z,7.52
2019-05-07T01:43:37.634Z,7.42
2019-05-07T01:44:37.626Z,7.37
2019-05-07T01:45:46.348Z,7.43
2019-05-07T01:46:38.613Z,7.43
2019-05-07T01:47:37.600Z,7.39
2019-05-07T01:48:37.589Z,7.35
2019-05-07T01:49:37.574Z,7.50
2019-05-07T01:50:37.575Z,7.48
2019-05-07T01:51:37.558Z,7.45
2019-05-07T01:52:37.530Z,7.43
2019-05-07T01:53:37.533Z,7.43
2019-05-07T01:54:37.511Z,7.34
2019-05-07T01:55:37.523Z,7.42
2019-05-07T01:56:37.489Z,7.31
2019-05-07T01:57:37.493Z,7.37
2019-05-07T01:58:37.479Z,7.39
2019-05-07T01:59:37.467Z,7.35
2019-05-07T02:00:37.493Z,7.39
2019-05-07T02:01:37.439Z,7.37
2019-05-07T02:02:37.435Z,7.32
2019-05-07T02:03:37.419Z,7.39
2019-05-07T02:04:37.405Z,7.34
2019-05-07T02:05:37.412Z,7.30
2019-05-07T02:06:37.399Z,7.37
2019-05-07T02:07:37.387Z,7.30
2019-05-07T02:08:37.362Z,7.39
2019-05-07T02:09:37.343Z,7.35
2019-05-07T02:10:37.379Z,7.48
2019-05-07T02:11:37.327Z,7.48
2019-05-07T02:12:37.323Z,7.55
2019-05-07T02:13:37.319Z,7.55
2019-05-07T02:14:37.290Z,7.52
2019-05-07T02:15:37.313Z,7.52
2019-05-07T02:16:37.288Z,7.58
2019-05-07T02:17:37.407Z,7.52
2019-05-07T02:18:37.242Z,7.69
2019-05-07T02:19:37.993Z,7.61
2019-05-07T02:20:37.232Z,7.68
2019-05-07T02:21:37.239Z,7.64
2019-05-07T02:22:37.220Z,7.71
2019-05-07T02:23:37.198Z,7.74
2019-05-07T02:24:37.202Z,7.79
2019-05-07T02:25:37.556Z,7.82
2019-05-07T02:26:37.213Z,7.85
2019-05-07T02:27:37.156Z,7.86
2019-05-07T02:28:37.148Z,7.93
2019-05-07T02:29:38.247Z,7.89
2019-05-07T02:30:37.137Z,7.95
2019-05-07T02:31:37.160Z,7.89
2019-05-07T02:32:37.104Z,7.89
2019-05-07T02:33:37.072Z,7.93
2019-05-07T02:34:37.072Z,7.97
2019-05-07T02:35:37.058Z,7.92
2019-05-07T02:36:37.054Z,7.93
2019-05-07T02:37:48.665Z,7.90
2019-05-07T02:38:38.028Z,7.86
2019-05-07T02:39:37.021Z,7.87
2019-05-07T02:40:37.019Z,7.86
2019-05-07T02:41:37.018Z,7.86
2019-05-07T02:42:37.031Z,7.85
2019-05-07T02:43:36.986Z,7.83
2019-05-07T02:44:36.963Z,7.85
2019-05-07T02:45:36.951Z,7.83
2019-05-07T02:46:36.952Z,7.86
2019-05-07T02:47:36.954Z,7.89
2019-05-07T02:48:36.936Z,7.92
2019-05-07T02:49:36.912Z,7.98
2019-05-07T02:50:36.900Z,7.93
2019-05-07T02:51:36.908Z,7.92
2019-05-07T02:52:36.885Z,8.00
2019-05-07T02:53:36.868Z,7.89
2019-05-07T02:54:36.851Z,7.95
2019-05-07T02:55:36.832Z,8.00
2019-05-07T02:56:36.840Z,8.00
2019-05-07T02:57:36.809Z,8.00
2019-05-07T02:58:36.822Z,7.93
2019-05-07T02:59:36.787Z,7.93
2019-05-07T03:00:36.914Z,7.92
2019-05-07T03:01:36.796Z,7.90
2019-05-07T03:02:36.762Z,7.90
2019-05-07T03:03:36.759Z,7.92
2019-05-07T03:04:36.740Z,7.87
2019-05-07T03:05:36.727Z,7.79
2019-05-07T03:06:36.754Z,7.79
2019-05-07T03:07:36.727Z,7.75
2019-05-07T03:08:36.694Z,7.74
2019-05-07T03:09:36.675Z,7.63
2019-05-07T03:10:36.676Z,7.63
2019-05-07T03:11:36.664Z,7.68
2019-05-07T03:12:36.692Z,7.63
2019-05-07T03:13:36.635Z,7.67
2019-05-07T03:14:36.634Z,7.69
2019-05-07T03:15:36.633Z,7.68
2019-05-07T03:16:43.761Z,7.75
2019-05-07T03:17:37.627Z,7.67
2019-05-07T03:18:36.580Z,7.79
2019-05-07T03:19:36.583Z,7.86
2019-05-07T03:20:36.567Z,7.83
2019-05-07T03:21:36.563Z,7.87
2019-05-07T03:22:36.572Z,7.87
2019-05-07T03:23:36.525Z,7.83
2019-05-07T03:24:36.553Z,7.74
2019-05-07T03:25:36.505Z,7.69
2019-05-07T03:26:36.486Z,7.69
2019-05-07T03:27:36.511Z,7.64
2019-05-07T03:28:36.462Z,7.74
2019-05-07T03:29:36.461Z,7.74
2019-05-07T03:30:36.770Z,7.74
2019-05-07T03:31:36.908Z,7.71
2019-05-07T03:32:38.996Z,7.74
2019-05-07T03:33:37.034Z,7.71
2019-05-07T03:34:37.413Z,7.72
2019-05-07T03:35:37.915Z,7.57
2019-05-07T03:36:36.393Z,7.50
2019-05-07T03:37:36.742Z,7.49
2019-05-07T03:38:36.367Z,7.64
2019-05-07T03:39:36.342Z,7.52
2019-05-07T03:40:36.347Z,7.67
2019-05-07T03:41:36.349Z,7.61
2019-05-07T03:42:36.331Z,7.64
2019-05-07T03:43:36.318Z,7.67
2019-05-07T03:44:36.292Z,7.64
2019-05-07T03:45:36.284Z,7.74
2019-05-07T03:46:53.169Z,7.72
2019-05-07T03:47:37.284Z,7.75
2019-05-07T03:48:36.252Z,7.74
2019-05-07T03:49:36.230Z,7.85
2019-05-07T03:50:36.214Z,7.85
2019-05-07T03:51:36.209Z,7.92
2019-05-07T03:52:36.264Z,7.95
2019-05-07T03:53:36.187Z,7.87
2019-05-07T03:54:36.167Z,7.89
2019-05-07T03:55:36.165Z,7.79
2019-05-07T03:56:36.160Z,7.80
2019-05-07T03:57:36.140Z,7.68
2019-05-07T03:58:36.153Z,7.55
2019-05-07T03:59:36.134Z,7.52
2019-05-07T04:00:36.103Z,7.55
2019-05-07T04:01:36.099Z,7.50
2019-05-07T04:02:36.072Z,7.32
2019-05-07T04:03:36.104Z,7.42
2019-05-07T04:04:36.062Z,7.37
2019-05-07T04:05:36.062Z,7.37
2019-05-07T04:06:36.040Z,7.37
2019-05-07T04:07:36.025Z,7.34
2019-05-07T04:08:36.056Z,7.34
2019-05-07T04:09:36.036Z,7.35
2019-05-07T04:10:35.990Z,7.34
2019-05-07T04:11:35.990Z,7.39
2019-05-07T04:12:35.977Z,7.45
2019-05-07T04:13:35.993Z,7.45
2019-05-07T04:14:35.956Z,7.45
2019-05-07T04:15:35.939Z,7.48
2019-05-07T04:16:35.933Z,7.42
2019-05-07T04:17:35.923Z,7.39
2019-05-07T04:18:35.927Z,7.34
2019-05-07T04:19:35.901Z,7.37
2019-05-07T04:20:35.883Z,7.35
2019-05-07T04:21:35.879Z,7.35
2019-05-07T04:22:35.866Z,7.37
2019-05-07T04:23:35.891Z,7.39
2019-05-07T04:24:35.844Z,7.35
2019-05-07T04:25:35.839Z,7.30
2019-05-07T04:26:35.832Z,7.20
2019-05-07T04:27:35.849Z,7.21
2019-05-07T04:28:35.824Z,7.31
2019-05-07T04:29:35.798Z,7.27
2019-05-07T04:30:35.804Z,7.27
2019-05-07T04:31:35.775Z,7.34
2019-05-07T04:32:35.757Z,7.35
2019-05-07T04:33:35.771Z,7.42
2019-05-07T04:34:35.753Z,7.43
2019-05-07T04:35:35.730Z,7.40
2019-05-07T04:36:35.737Z,7.25
2019-05-07T04:37:35.748Z,7.28
2019-05-07T04:38:35.709Z,7.21
2019-05-07T04:39:35.713Z,7.20
2019-05-07T04:40:35.687Z,7.23
2019-05-07T04:41:35.671Z,7.27
2019-05-07T04:42:35.649Z,7.27
2019-05-07T04:43:35.701Z,7.34
2019-05-07T04:44:35.639Z,7.39
2019-05-07T04:45:35.626Z,7.28
2019-05-07T04:46:35.647Z,7.27
2019-05-07T04:47:43.115Z,7.21
2019-05-07T04:48:36.600Z,7.25
2019-05-07T04:49:35.574Z,7.30
2019-05-07T04:50:43.206Z,7.28
2019-05-07T04:51:36.548Z,7.27
2019-05-07T04:52:35.527Z,7.28
2019-05-07T04:53:35.511Z,7.39
2019-05-07T04:54:35.554Z,7.40
2019-05-07T04:55:35.499Z,7.39
2019-05-07T04:56:35.484Z,7.30
2019-05-07T04:57:35.473Z,7.34
2019-05-07T04:58:35.474Z,7.28
2019-05-07T04:59:35.490Z,7.30
2019-05-07T05:00:35.441Z,7.27
2019-05-07T05:01:35.428Z,7.34
2019-05-07T05:02:35.409Z,7.37
2019-05-07T05:03:38.952Z,7.40
2019-05-07T05:04:35.427Z,7.34
2019-05-07T05:05:35.381Z,7.42
2019-05-07T05:06:35.375Z,7.39
2019-05-07T05:07:35.357Z,7.30
2019-05-07T05:08:35.356Z,7.24
2019-05-07T05:09:35.369Z,7.20
2019-05-07T05:10:35.322Z,7.20
2019-05-07T05:11:35.325Z,7.03
2019-05-07T05:12:35.298Z,7.06
2019-05-07T05:13:35.314Z,7.07
2019-05-07T05:14:35.326Z,7.10
2019-05-07T05:15:35.280Z,7.07
2019-05-07T05:16:35.267Z,6.97
2019-05-07T05:17:47.063Z,7.03
2019-05-07T05:18:36.234Z,6.97
2019-05-07T05:19:35.256Z,7.02
2019-05-07T05:20:35.210Z,6.99
2019-05-07T05:21:35.264Z,6.99
2019-05-07T05:22:35.194Z,7.03
2019-05-07T05:23:35.190Z,6.97
2019-05-07T05:24:35.182Z,7.09
2019-05-07T05:25:35.156Z,7.03
2019-05-07T05:26:35.151Z,7.06
2019-05-07T05:27:35.139Z,7.07
2019-05-07T05:28:35.135Z,7.12
2019-05-07T05:29:35.136Z,7.07
2019-05-07T05:30:35.104Z,7.07
2019-05-07T05:31:35.102Z,7.02
2019-05-07T05:32:35.086Z,6.94
2019-05-07T05:33:35.069Z,6.99
2019-05-07T05:34:35.098Z,6.89
2019-05-07T05:35:35.102Z,6.92
2019-05-07T05:36:35.034Z,6.87
2019-05-07T05:37:35.046Z,6.91
2019-05-07T05:38:35.008Z,6.94
2019-05-07T05:39:34.998Z,6.94
2019-05-07T05:40:35.019Z,6.98
2019-05-07T05:41:37.808Z,6.91
2019-05-07T05:42:34.969Z,6.94
2019-05-07T05:43:34.956Z,7.03
2019-05-07T05:44:34.944Z,7.07
2019-05-07T05:45:34.946Z,7.05
2019-05-07T05:46:34.923Z,7.03
2019-05-07T05:47:34.939Z,6.97
2019-05-07T05:48:34.899Z,6.98
2019-05-07T05:49:34.888Z,7.05
2019-05-07T05:50:34.897Z,6.95
2019-05-07T05:51:34.881Z,6.95
2019-05-07T05:52:34.856Z,6.92
2019-05-07T05:53:34.841Z,6.98
2019-05-07T05:54:34.830Z,6.98
2019-05-07T05:55:34.869Z,7.03
2019-05-07T05:56:34.826Z,7.09
2019-05-07T05:57:34.803Z,7.07
2019-05-07T05:58:34.801Z,7.09
2019-05-07T05:59:47.879Z,7.10
2019-05-07T06:00:35.795Z,7.16
2019-05-07T06:01:34.766Z,7.25
2019-05-07T06:02:34.741Z,7.17
2019-05-07T06:03:34.742Z,7.20
2019-05-07T06:04:34.723Z,7.17
2019-05-07T06:05:34.729Z,7.24
2019-05-07T06:06:34.709Z,7.23
2019-05-07T06:07:34.693Z,7.21
2019-05-07T06:08:34.677Z,7.27
2019-05-07T06:09:34.737Z,7.23
2019-05-07T06:10:34.672Z,7.21
2019-05-07T06:11:34.632Z,7.20
2019-05-07T06:12:34.647Z,7.16
2019-05-07T06:13:34.635Z,7.20
2019-05-07T06:14:34.611Z,7.20
2019-05-07T06:15:34.621Z,7.24
2019-05-07T06:16:36.636Z,7.28
2019-05-07T06:17:34.577Z,7.32
2019-05-07T06:18:34.566Z,7.40
2019-05-07T06:19:34.552Z,7.40
2019-05-07T06:20:34.559Z,7.35
2019-05-07T06:21:34.528Z,7.37
2019-05-07T06:22:34.520Z,7.39
2019-05-07T06:23:34.511Z,7.35
2019-05-07T06:24:34.507Z,7.46
2019-05-07T06:25:34.532Z,7.50
2019-05-07T06:26:34.473Z,7.49
2019-05-07T06:27:34.484Z,7.35
2019-05-07T06:28:34.457Z,7.32
2019-05-07T06:29:34.446Z,7.39
2019-05-07T06:30:34.422Z,7.45
2019-05-07T06:31:34.433Z,7.43
2019-05-07T06:32:34.401Z,7.43
2019-05-07T06:33:34.390Z,7.50
2019-05-07T06:34:34.416Z,7.57
2019-05-07T06:35:34.376Z,7.46
2019-05-07T06:36:34.402Z,7.49
2019-05-07T06:37:34.351Z,7.45
2019-05-07T06:38:34.374Z,7.64
2019-05-07T06:39:34.323Z,7.58
2019-05-07T06:40:34.325Z,7.61
2019-05-07T06:41:34.333Z,7.74
2019-05-07T06:42:34.294Z,7.71
2019-05-07T06:43:34.287Z,7.71
2019-05-07T06:44:34.295Z,7.83
2019-05-07T06:45:35.406Z,7.83
2019-05-07T06:46:34.268Z,7.95
2019-05-07T06:47:34.234Z,7.95
2019-05-07T06:48:41.911Z,7.92
2019-05-07T06:49:35.206Z,7.92
2019-05-07T06:50:34.198Z,7.87
2019-05-07T06:51:34.221Z,7.97
2019-05-07T06:52:34.175Z,7.95
2019-05-07T06:53:34.166Z,7.95
2019-05-07T06:54:34.156Z,7.86
2019-05-07T06:55:34.146Z,7.85
2019-05-07T06:56:34.168Z,7.93
2019-05-07T06:57:34.128Z,7.89
2019-05-07T06:58:34.111Z,7.89
2019-05-07T06:59:34.762Z,7.97
2019-05-07T07:00:34.099Z,7.97
2019-05-07T07:01:34.100Z,7.92
2019-05-07T07:02:34.090Z,7.93
2019-05-07T07:03:34.067Z,7.92
2019-05-07T07:04:34.049Z,7.95
2019-05-07T07:05:34.133Z,7.98
2019-05-07T07:06:34.051Z,8.02
2019-05-07T07:07:37.210Z,8.01
2019-05-07T07:08:34.000Z,8.02
2019-05-07T07:09:34.014Z,8.00
2019-05-07T07:10:33.975Z,8.07
2019-05-07T07:11:34.134Z,8.18
2019-05-07T07:12:33.956Z,8.20
2019-05-07T07:13:33.946Z,8.16
2019-05-07T07:14:33.945Z,8.22
2019-05-07T07:15:33.931Z,8.28
2019-05-07T07:16:33.943Z,8.28
2019-05-07T07:17:33.910Z,8.38
2019-05-07T07:18:48.159Z,8.34
2019-05-07T07:19:36.165Z,8.40
2019-05-07T07:20:33.874Z,8.52
2019-05-07T07:21:33.878Z,8.52
2019-05-07T07:22:33.848Z,8.50
2019-05-07T07:23:33.835Z,8.52
2019-05-07T07:24:33.840Z,8.50
2019-05-07T07:25:33.823Z,8.58
2019-05-07T07:26:33.846Z,8.53
2019-05-07T07:27:33.794Z,8.47
2019-05-07T07:28:33.790Z,8.34
2019-05-07T07:29:33.817Z,8.38
2019-05-07T07:30:33.786Z,8.38
2019-05-07T07:31:33.742Z,8.45
2019-05-07T07:32:33.752Z,8.55
2019-05-07T07:33:33.724Z,8.61
2019-05-07T07:34:33.729Z,8.68
2019-05-07T07:35:33.716Z,8.71
2019-05-07T07:36:33.704Z,8.81
2019-05-07T07:37:33.736Z,8.77
2019-05-07T07:38:33.658Z,8.79
2019-05-07T07:39:33.662Z,8.86
2019-05-07T07:40:33.658Z,8.83
2019-05-07T07:41:33.648Z,8.92
2019-05-07T07:42:33.676Z,8.94
2019-05-07T07:43:33.612Z,8.92
2019-05-07T07:44:33.598Z,8.86
2019-05-07T07:45:33.602Z,8.91
2019-05-07T07:46:33.586Z,8.76
2019-05-07T07:47:33.602Z,8.76
2019-05-07T07:48:33.554Z,8.81
2019-05-07T07:49:33.563Z,8.81
2019-05-07T07:50:33.541Z,8.73
2019-05-07T07:51:41.178Z,8.77
2019-05-07T07:52:34.536Z,8.86
2019-05-07T07:53:35.490Z,8.79
2019-05-07T07:54:33.492Z,8.77
2019-05-07T07:55:33.477Z,8.81
2019-05-07T07:56:48.413Z,8.87
2019-05-07T07:57:34.477Z,8.95
2019-05-07T07:58:34.274Z,8.94
2019-05-07T07:59:33.430Z,8.89
2019-05-07T08:00:33.429Z,8.89
2019-05-07T08:01:33.416Z,8.87
2019-05-07T08:02:33.424Z,8.83
2019-05-07T08:03:33.387Z,8.71
2019-05-07T08:04:33.391Z,8.70
2019-05-07T08:05:33.369Z,8.65
2019-05-07T08:06:33.363Z,8.71
2019-05-07T08:07:33.360Z,8.77
2019-05-07T08:08:33.338Z,8.87
2019-05-07T08:09:33.320Z,8.92
2019-05-07T08:10:33.326Z,9.01
2019-05-07T08:11:33.298Z,8.99
2019-05-07T08:12:33.321Z,9.10
2019-05-07T08:13:33.273Z,9.15
2019-05-07T08:14:33.271Z,9.17
2019-05-07T08:15:33.263Z,9.23
2019-05-07T08:16:33.236Z,9.20
2019-05-07T08:17:33.264Z,9.26
2019-05-07T08:18:33.250Z,9.29
2019-05-07T08:19:33.208Z,9.21
2019-05-07T08:20:33.220Z,9.23
2019-05-07T08:21:33.337Z,9.32
2019-05-07T08:22:33.220Z,9.33
2019-05-07T08:23:33.160Z,9.36
2019-05-07T08:24:33.155Z,9.29
2019-05-07T08:25:33.146Z,9.21
2019-05-07T08:26:33.129Z,9.24
2019-05-07T08:27:33.142Z,9.21
2019-05-07T08:28:33.112Z,9.15
2019-05-07T08:29:33.096Z,9.18
2019-05-07T08:30:33.084Z,9.18
2019-05-07T08:31:33.084Z,9.05
2019-05-07T08:32:33.086Z,9.17
2019-05-07T08:33:33.054Z,9.21
2019-05-07T08:34:33.046Z,9.28
2019-05-07T08:35:33.029Z,9.24
2019-05-07T08:36:33.234Z,9.53
2019-05-07T08:37:33.030Z,9.64
2019-05-07T08:38:33.017Z,9.65
2019-05-07T08:39:32.998Z,9.74
2019-05-07T08:40:32.981Z,9.83
2019-05-07T08:41:32.958Z,9.99
2019-05-07T08:42:32.977Z,9.93
2019-05-07T08:43:32.945Z,10.05
2019-05-07T08:44:32.942Z,10.14
2019-05-07T08:45:32.960Z,10.17
2019-05-07T08:46:32.927Z,10.18
2019-05-07T08:47:32.932Z,10.18
2019-05-07T08:48:32.895Z,10.12
2019-05-07T08:49:38.904Z,10.25
2019-05-07T08:50:33.869Z,10.14
2019-05-07T08:51:32.852Z,10.07
2019-05-07T08:52:32.866Z,9.93
2019-05-07T08:53:32.938Z,9.83
2019-05-07T08:54:32.830Z,9.79
2019-05-07T08:55:32.844Z,9.69
2019-05-07T08:56:32.793Z,9.71
2019-05-07T08:57:32.837Z,9.71
2019-05-07T08:58:32.800Z,9.58
2019-05-07T08:59:32.763Z,9.61
2019-05-07T09:00:32.826Z,9.54
2019-05-07T09:01:32.776Z,9.57
2019-05-07T09:02:32.769Z,9.72
2019-05-07T09:03:33.205Z,9.74
2019-05-07T09:04:33.066Z,9.76
2019-05-07T09:05:32.698Z,9.86
2019-05-07T09:06:32.681Z,9.81
2019-05-07T09:07:32.687Z,9.84
2019-05-07T09:08:32.693Z,9.90
2019-05-07T09:09:32.849Z,9.96
2019-05-07T09:10:32.686Z,9.97
2019-05-07T09:11:32.628Z,9.96
2019-05-07T09:12:32.615Z,9.99
2019-05-07T09:13:33.293Z,9.89
2019-05-07T09:14:32.595Z,9.84
2019-05-07T09:15:32.671Z,9.84
2019-05-07T09:16:32.583Z,9.87
2019-05-07T09:17:32.559Z,9.89
2019-05-07T09:18:32.574Z,9.96
2019-05-07T09:19:32.566Z,9.96
2019-05-07T09:20:33.535Z,9.97
2019-05-07T09:21:32.528Z,10.08
2019-05-07T09:22:32.559Z,10.14
2019-05-07T09:23:32.522Z,10.18
2019-05-07T09:24:33.386Z,10.33
2019-05-07T09:25:32.566Z,10.40
2019-05-07T09:26:32.475Z,10.36
2019-05-07T09:27:32.847Z,10.53
2019-05-07T09:28:32.696Z,10.59
2019-05-07T09:29:32.481Z,10.61
2019-05-07T09:30:32.775Z,10.67
2019-05-07T09:31:32.425Z,10.67
2019-05-07T09:32:32.761Z,10.68
2019-05-07T09:33:32.414Z,10.61
2019-05-07T09:34:32.694Z,10.64
2019-05-07T09:35:32.373Z,10.73
2019-05-07T09:36:32.353Z,10.70
2019-05-07T09:37:32.721Z,10.73
2019-05-07T09:38:32.864Z,10.71
2019-05-07T09:39:32.534Z,10.67
2019-05-07T09:40:32.310Z,10.67
2019-05-07T09:41:32.717Z,10.61
2019-05-07T09:42:33.284Z,10.51
2019-05-07T09:43:32.569Z,10.41
2019-05-07T09:44:32.588Z,10.22
2019-05-07T09:45:32.854Z,10.36
2019-05-07T09:46:32.680Z,10.22
2019-05-07T09:47:32.641Z,10.25
2019-05-07T09:48:33.839Z,10.18
2019-05-07T09:49:32.719Z,10.26
2019-05-07T09:50:32.620Z,10.26
2019-05-07T09:51:32.380Z,10.20
2019-05-07T09:52:32.317Z,10.26
2019-05-07T09:53:32.282Z,10.29
2019-05-07T09:54:32.418Z,10.45
2019-05-07T09:55:32.659Z,10.42
2019-05-07T09:56:32.137Z,10.45
2019-05-07T09:57:34.651Z,10.53
2019-05-07T09:58:36.458Z,10.63
2019-05-07T09:59:33.101Z,10.67
2019-05-07T10:00:32.189Z,10.71
2019-05-07T10:01:32.174Z,10.71
2019-05-07T10:02:32.245Z,10.82
2019-05-07T10:03:32.534Z,10.88
2019-05-07T10:04:32.705Z,10.89
2019-05-07T10:05:32.249Z,11.00
2019-05-07T10:06:32.186Z,10.97
2019-05-07T10:07:32.404Z,10.96
2019-05-07T10:08:31.996Z,10.97
2019-05-07T10:09:32.779Z,10.96
2019-05-07T10:10:32.895Z,11.00
2019-05-07T10:11:32.931Z,11.10
2019-05-07T10:12:32.979Z,11.10
2019-05-07T10:13:33.015Z,11.03
2019-05-07T10:14:33.118Z,10.94
2019-05-07T10:15:33.175Z,10.89
2019-05-07T10:16:31.917Z,10.91
2019-05-07T10:17:32.738Z,10.81
2019-05-07T10:18:32.124Z,10.81
2019-05-07T10:19:32.458Z,10.91
2019-05-07T10:20:32.775Z,10.86
2019-05-07T10:21:31.865Z,10.85
2019-05-07T10:22:32.250Z,10.94
2019-05-07T10:23:31.829Z,10.97
2019-05-07T10:24:31.853Z,10.96
2019-05-07T10:25:32.763Z,10.89
2019-05-07T10:26:32.270Z,11.00
2019-05-07T10:27:32.493Z,11.02
2019-05-07T10:28:32.205Z,11.04
2019-05-07T10:29:32.388Z,11.02
2019-05-07T10:30:32.143Z,11.00
2019-05-07T10:31:32.129Z,10.97
2019-05-07T10:32:32.184Z,11.04
2019-05-07T10:33:32.065Z,10.92
2019-05-07T10:34:31.733Z,10.82
2019-05-07T10:35:33.715Z,10.68
2019-05-07T10:36:32.109Z,10.70
2019-05-07T10:37:31.998Z,10.71
2019-05-07T10:38:31.662Z,10.53
2019-05-07T10:39:32.550Z,10.44
2019-05-07T10:40:32.710Z,10.45
2019-05-07T10:41:31.935Z,10.52
2019-05-07T10:42:32.349Z,10.55
2019-05-07T10:43:32.766Z,10.60
2019-05-07T10:44:32.159Z,10.67
2019-05-07T10:45:32.275Z,10.64
2019-05-07T10:46:32.008Z,10.71
2019-05-07T10:47:31.572Z,10.79
2019-05-07T10:48:31.976Z,10.84
2019-05-07T10:49:31.827Z,10.91
2019-05-07T10:50:38.628Z,10.94
2019-05-07T10:51:32.514Z,10.96
2019-05-07T10:52:31.962Z,11.06
2019-05-07T10:53:32.091Z,11.17
2019-05-07T10:54:31.529Z,11.06
2019-05-07T10:55:32.759Z,11.06
2019-05-07T10:56:32.655Z,11.03
2019-05-07T10:57:32.893Z,11.10
2019-05-07T10:58:32.061Z,11.02
2019-05-07T10:59:31.479Z,11.10
2019-05-07T11:00:33.117Z,11.11
2019-05-07T11:01:32.887Z,11.17
2019-05-07T11:02:32.441Z,11.07
2019-05-07T11:03:32.437Z,11.18
2019-05-07T11:04:40.267Z,11.22
2019-05-07T11:05:32.736Z,11.36
2019-05-07T11:06:32.332Z,11.42
2019-05-07T11:07:32.805Z,11.33
2019-05-07T11:08:32.947Z,11.42
2019-05-07T11:09:32.818Z,11.43
2019-05-07T11:10:32.610Z,11.47
2019-05-07T11:11:31.905Z,11.54
2019-05-07T11:12:31.957Z,11.49
2019-05-07T11:13:31.284Z,11.51
2019-05-07T11:14:32.141Z,11.62
2019-05-07T11:15:32.679Z,11.51
2019-05-07T11:16:32.410Z,11.42
2019-05-07T11:17:32.636Z,11.47
2019-05-07T11:18:32.337Z,11.49
2019-05-07T11:19:32.453Z,11.55
2019-05-07T11:20:32.066Z,11.57
2019-05-07T11:21:33.361Z,11.58
2019-05-07T11:22:32.748Z,11.69
2019-05-07T11:23:32.717Z,11.80
2019-05-07T11:24:32.084Z,11.76
2019-05-07T11:25:31.164Z,11.80
2019-05-07T11:26:32.847Z,11.73
2019-05-07T11:27:32.979Z,11.85
2019-05-07T11:28:32.383Z,11.82
2019-05-07T11:29:32.790Z,11.79
2019-05-07T11:30:32.056Z,11.82
2019-05-07T11:31:33.093Z,11.76
2019-05-07T11:32:32.154Z,11.67
2019-05-07T11:33:32.617Z,11.69
2019-05-07T11:34:32.768Z,11.69
2019-05-07T11:35:31.932Z,11.57
2019-05-07T11:36:31.961Z,11.46
2019-05-07T11:37:31.010Z,11.35
2019-05-07T11:38:33.087Z,11.37
2019-05-07T11:39:33.063Z,11.35
2019-05-07T11:40:32.191Z,11.29
2019-05-07T11:41:32.111Z,11.39
2019-05-07T11:42:30.955Z,11.32
2019-05-07T11:43:32.627Z,11.43
2019-05-07T11:44:32.063Z,11.42
2019-05-07T11:45:32.121Z,11.47
2019-05-07T11:46:32.729Z,11.52
2019-05-07T11:47:31.897Z,11.57
2019-05-07T11:48:33.547Z,11.62
2019-05-07T11:49:32.752Z,11.57
2019-05-07T11:50:32.857Z,11.62
2019-05-07T11:51:33.270Z,11.67
2019-05-07T11:52:35.220Z,11.67
2019-05-07T11:53:32.634Z,11.67
2019-05-07T11:54:31.840Z,11.75
2019-05-07T11:55:30.827Z,11.80
2019-05-07T11:56:32.815Z,11.82
2019-05-07T11:57:30.794Z,11.82
2019-05-07T11:58:32.529Z,11.79
2019-05-07T11:59:32.475Z,11.82
2019-05-07T12:00:32.343Z,11.85
2019-05-07T12:01:43.598Z,11.85
2019-05-07T12:02:32.081Z,11.73
2019-05-07T12:03:32.486Z,11.83
2019-05-07T12:04:32.040Z,11.78
2019-05-07T12:05:33.015Z,11.78
2019-05-07T12:06:32.154Z,11.78
2019-05-07T12:07:32.630Z,11.79
2019-05-07T12:08:39.398Z,11.83
2019-05-07T12:09:33.274Z,11.85
2019-05-07T12:10:32.590Z,11.90
2019-05-07T12:11:32.235Z,11.90
2019-05-07T12:12:32.471Z,11.98
2019-05-07T12:13:32.376Z,11.98
2019-05-07T12:14:32.552Z,12.12
2019-05-07T12:15:32.487Z,12.05
2019-05-07T12:16:32.069Z,12.14
2019-05-07T12:17:31.681Z,12.24
2019-05-07T12:18:31.999Z,12.28
2019-05-07T12:19:30.546Z,12.24
2019-05-07T12:20:32.425Z,12.31
2019-05-07T12:21:30.534Z,12.32
2019-05-07T12:22:30.502Z,12.39
2019-05-07T12:23:30.497Z,12.42
2019-05-07T12:24:32.680Z,12.38
2019-05-07T12:25:32.093Z,12.37
2019-05-07T12:26:30.462Z,12.32
2019-05-07T12:27:32.336Z,12.21
2019-05-07T12:28:32.576Z,12.21
2019-05-07T12:29:32.233Z,12.28
2019-05-07T12:30:32.499Z,12.32
2019-05-07T12:31:30.408Z,12.28
2019-05-07T12:32:32.244Z,12.35
2019-05-07T12:33:32.331Z,12.37
2019-05-07T12:34:31.871Z,12.41
2019-05-07T12:35:30.384Z,12.52
2019-05-07T12:36:32.006Z,12.62
2019-05-07T12:37:32.023Z,12.67
2019-05-07T12:38:32.248Z,12.74
2019-05-07T12:39:31.843Z,12.85
2019-05-07T12:40:32.394Z,12.82
2019-05-07T12:41:33.173Z,13.01
2019-05-07T12:42:30.299Z,13.10
2019-05-07T12:43:31.922Z,13.05
2019-05-07T12:44:31.973Z,13.07
2019-05-07T12:45:30.306Z,13.11
2019-05-07T12:46:30.257Z,13.15
2019-05-07T12:47:30.227Z,13.11
2019-05-07T12:48:30.226Z,13.08
2019-05-07T12:49:32.331Z,13.17
2019-05-07T12:50:32.179Z,13.17
2019-05-07T12:51:34.471Z,13.14
2019-05-07T12:52:32.051Z,13.26
2019-05-07T12:53:31.898Z,13.25
2019-05-07T12:54:30.157Z,13.30
2019-05-07T12:55:32.251Z,13.28
2019-05-07T12:56:31.933Z,13.26
2019-05-07T12:57:30.127Z,13.26
2019-05-07T12:58:32.140Z,13.19
2019-05-07T12:59:32.100Z,13.20
2019-05-07T13:00:32.186Z,13.32
2019-05-07T13:01:30.069Z,13.28
2019-05-07T13:02:38.163Z,13.29
2019-05-07T13:03:32.318Z,13.36
2019-05-07T13:04:32.361Z,13.36
2019-05-07T13:05:30.042Z,13.29
2019-05-07T13:06:30.009Z,13.44
2019-05-07T13:07:30.027Z,13.45
2019-05-07T13:08:29.996Z,13.46
2019-05-07T13:09:32.373Z,13.51
2019-05-07T13:10:32.347Z,13.54